sensor_id;sensor_type;location;lat;lon;timestamp;P1;durP1;ratioP1;P2;durP2;ratioP2
52015;SDS011;38032;53.326;6.472;2022-09-01T00:01:49;2.60;;;1.63;;
52015;SDS011;38032;53.326;6.472;2022-09-01T00:04:19;2.90;;;1.73;;
52015;SDS011;38032;53.326;6.472;2022-09-01T00:06:47;4.05;;;1.67;;
52015;SDS011;38032;53.326;6.472;2022-09-01T00:09:14;2.13;;;1.60;;
52015;SDS011;38032;53.326;6.472;2022-09-01T00:11:43;2.90;;;1.67;;
52015;SDS011;38032;53.326;6.472;2022-09-01T00:14:13;2.85;;;1.80;;
52015;SDS011;38032;53.326;6.472;2022-09-01T00:16:39;3.03;;;1.77;;
52015;SDS011;38032;53.326;6.472;2022-09-01T00:19:05;2.50;;;1.60;;
52015;SDS011;38032;53.326;6.472;2022-09-01T00:21:33;2.70;;;1.50;;
52015;SDS011;38032;53.326;6.472;2022-09-01T00:24:02;3.97;;;1.60;;
52015;SDS011;38032;53.326;6.472;2022-09-01T00:26:29;4.20;;;1.70;;
52015;SDS011;38032;53.326;6.472;2022-09-01T00:28:55;3.20;;;1.88;;
52015;SDS011;38032;53.326;6.472;2022-09-01T00:31:21;2.40;;;1.60;;
52015;SDS011;38032;53.326;6.472;2022-09-01T00:33:47;3.67;;;1.40;;
52015;SDS011;38032;53.326;6.472;2022-09-01T00:36:14;2.97;;;1.90;;
52015;SDS011;38032;53.326;6.472;2022-09-01T00:38:41;3.80;;;1.60;;
52015;SDS011;38032;53.326;6.472;2022-09-01T00:41:07;2.10;;;1.40;;
52015;SDS011;38032;53.326;6.472;2022-09-01T00:46:06;2.20;;;1.42;;
52015;SDS011;38032;53.326;6.472;2022-09-01T00:48:34;4.30;;;1.67;;
52015;SDS011;38032;53.326;6.472;2022-09-01T00:51:01;3.00;;;1.63;;
52015;SDS011;38032;53.326;6.472;2022-09-01T00:53:29;2.50;;;1.58;;
52015;SDS011;38032;53.326;6.472;2022-09-01T00:55:55;2.38;;;1.58;;
52015;SDS011;38032;53.326;6.472;2022-09-01T00:58:21;2.58;;;1.70;;
52015;SDS011;38032;53.326;6.472;2022-09-01T01:00:47;4.10;;;1.55;;
52015;SDS011;38032;53.326;6.472;2022-09-01T01:03:16;2.40;;;1.50;;
52015;SDS011;38032;53.326;6.472;2022-09-01T01:05:43;2.53;;;1.45;;
52015;SDS011;38032;53.326;6.472;2022-09-01T01:08:17;4.07;;;1.60;;
52015;SDS011;38032;53.326;6.472;2022-09-01T01:11:03;2.95;;;1.63;;
52015;SDS011;38032;53.326;6.472;2022-09-01T01:13:31;2.45;;;1.50;;
52015;SDS011;38032;53.326;6.472;2022-09-01T01:16:13;2.05;;;1.40;;
52015;SDS011;38032;53.326;6.472;2022-09-01T01:18:40;3.35;;;1.73;;
52015;SDS011;38032;53.326;6.472;2022-09-01T01:21:07;2.42;;;1.67;;
52015;SDS011;38032;53.326;6.472;2022-09-01T01:24:06;2.90;;;1.70;;
52015;SDS011;38032;53.326;6.472;2022-09-01T01:26:43;2.58;;;1.60;;
52015;SDS011;38032;53.326;6.472;2022-09-01T01:29:09;3.03;;;1.80;;
52015;SDS011;38032;53.326;6.472;2022-09-01T01:31:36;2.97;;;1.80;;
52015;SDS011;38032;53.326;6.472;2022-09-01T01:34:02;3.67;;;1.80;;
52015;SDS011;38032;53.326;6.472;2022-09-01T01:36:34;2.38;;;1.70;;
52015;SDS011;38032;53.326;6.472;2022-09-01T01:39:05;4.07;;;2.00;;
52015;SDS011;38032;53.326;6.472;2022-09-01T01:41:34;2.75;;;1.70;;
52015;SDS011;38032;53.326;6.472;2022-09-01T01:44:05;2.90;;;1.80;;
52015;SDS011;38032;53.326;6.472;2022-09-01T01:46:31;2.50;;;1.60;;
52015;SDS011;38032;53.326;6.472;2022-09-01T01:48:58;2.58;;;1.70;;
52015;SDS011;38032;53.326;6.472;2022-09-01T01:51:26;3.20;;;1.80;;
52015;SDS011;38032;53.326;6.472;2022-09-01T01:53:55;2.95;;;1.90;;
52015;SDS011;38032;53.326;6.472;2022-09-01T01:56:21;2.97;;;1.45;;
52015;SDS011;38032;53.326;6.472;2022-09-01T01:58:50;3.05;;;1.85;;
52015;SDS011;38032;53.326;6.472;2022-09-01T02:01:22;2.88;;;1.80;;
52015;SDS011;38032;53.326;6.472;2022-09-01T02:03:50;3.05;;;1.80;;
52015;SDS011;38032;53.326;6.472;2022-09-01T02:06:19;2.58;;;1.50;;
52015;SDS011;38032;53.326;6.472;2022-09-01T02:08:48;2.30;;;1.60;;
52015;SDS011;38032;53.326;6.472;2022-09-01T02:11:16;3.10;;;1.42;;
52015;SDS011;38032;53.326;6.472;2022-09-01T02:13:42;2.58;;;1.80;;
52015;SDS011;38032;53.326;6.472;2022-09-01T02:16:08;3.10;;;1.70;;
52015;SDS011;38032;53.326;6.472;2022-09-01T02:18:37;2.92;;;1.70;;
52015;SDS011;38032;53.326;6.472;2022-09-01T02:21:08;2.13;;;1.40;;
52015;SDS011;38032;53.326;6.472;2022-09-01T02:23:36;2.15;;;1.40;;
52015;SDS011;38032;53.326;6.472;2022-09-01T02:26:03;1.80;;;1.30;;
52015;SDS011;38032;53.326;6.472;2022-09-01T02:28:31;2.15;;;1.40;;
52015;SDS011;38032;53.326;6.472;2022-09-01T02:31:01;4.05;;;1.48;;
52015;SDS011;38032;53.326;6.472;2022-09-01T02:33:28;2.30;;;1.40;;
52015;SDS011;38032;53.326;6.472;2022-09-01T02:35:55;2.15;;;1.50;;
52015;SDS011;38032;53.326;6.472;2022-09-01T02:38:23;3.58;;;1.80;;
52015;SDS011;38032;53.326;6.472;2022-09-01T02:40:55;2.60;;;1.80;;
52015;SDS011;38032;53.326;6.472;2022-09-01T02:43:22;5.05;;;1.70;;
52015;SDS011;38032;53.326;6.472;2022-09-01T02:45:50;2.95;;;1.98;;
52015;SDS011;38032;53.326;6.472;2022-09-01T02:48:21;3.55;;;2.10;;
52015;SDS011;38032;53.326;6.472;2022-09-01T02:50:53;4.13;;;2.10;;
52015;SDS011;38032;53.326;6.472;2022-09-01T02:53:19;3.95;;;2.33;;
52015;SDS011;38032;53.326;6.472;2022-09-01T02:55:45;3.72;;;2.33;;
52015;SDS011;38032;53.326;6.472;2022-09-01T02:58:10;4.00;;;2.30;;
52015;SDS011;38032;53.326;6.472;2022-09-01T03:00:41;4.22;;;2.10;;
52015;SDS011;38032;53.326;6.472;2022-09-01T03:03:07;3.15;;;2.20;;
52015;SDS011;38032;53.326;6.472;2022-09-01T03:05:34;2.90;;;2.38;;
52015;SDS011;38032;53.326;6.472;2022-09-01T03:08:04;5.50;;;2.30;;
52015;SDS011;38032;53.326;6.472;2022-09-01T03:10:36;2.63;;;2.20;;
52015;SDS011;38032;53.326;6.472;2022-09-01T03:13:07;3.83;;;2.38;;
52015;SDS011;38032;53.326;6.472;2022-09-01T03:15:36;3.55;;;2.20;;
52015;SDS011;38032;53.326;6.472;2022-09-01T03:18:03;3.90;;;2.28;;
52015;SDS011;38032;53.326;6.472;2022-09-01T03:20:31;3.70;;;2.10;;
52015;SDS011;38032;53.326;6.472;2022-09-01T03:23:02;3.00;;;1.95;;
52015;SDS011;38032;53.326;6.472;2022-09-01T03:25:31;4.38;;;2.20;;
52015;SDS011;38032;53.326;6.472;2022-09-01T03:27:58;3.88;;;2.20;;
52015;SDS011;38032;53.326;6.472;2022-09-01T03:30:26;3.35;;;2.38;;
52015;SDS011;38032;53.326;6.472;2022-09-01T03:32:56;2.58;;;1.90;;
52015;SDS011;38032;53.326;6.472;2022-09-01T03:35:22;2.80;;;2.05;;
52015;SDS011;38032;53.326;6.472;2022-09-01T03:37:49;3.10;;;2.10;;
52015;SDS011;38032;53.326;6.472;2022-09-01T03:40:15;3.28;;;1.90;;
52015;SDS011;38032;53.326;6.472;2022-09-01T03:42:42;3.72;;;2.20;;
52015;SDS011;38032;53.326;6.472;2022-09-01T03:45:09;3.10;;;2.08;;
52015;SDS011;38032;53.326;6.472;2022-09-01T03:47:38;2.83;;;2.10;;
52015;SDS011;38032;53.326;6.472;2022-09-01T03:50:05;3.58;;;2.17;;
52015;SDS011;38032;53.326;6.472;2022-09-01T03:52:36;4.47;;;2.17;;
52015;SDS011;38032;53.326;6.472;2022-09-01T03:55:04;4.65;;;2.00;;
52015;SDS011;38032;53.326;6.472;2022-09-01T03:57:30;2.90;;;2.05;;
52015;SDS011;38032;53.326;6.472;2022-09-01T03:59:58;3.33;;;2.30;;
52015;SDS011;38032;53.326;6.472;2022-09-01T04:02:24;4.25;;;2.17;;
52015;SDS011;38032;53.326;6.472;2022-09-01T04:04:53;3.42;;;2.13;;
52015;SDS011;38032;53.326;6.472;2022-09-01T04:07:19;2.78;;;2.05;;
52015;SDS011;38032;53.326;6.472;2022-09-01T04:09:45;4.75;;;2.55;;
52015;SDS011;38032;53.326;6.472;2022-09-01T04:12:10;3.33;;;2.30;;
52015;SDS011;38032;53.326;6.472;2022-09-01T04:14:39;3.15;;;2.20;;
52015;SDS011;38032;53.326;6.472;2022-09-01T04:17:05;3.75;;;2.33;;
52015;SDS011;38032;53.326;6.472;2022-09-01T04:19:50;3.58;;;2.20;;
52015;SDS011;38032;53.326;6.472;2022-09-01T04:22:15;6.10;;;2.40;;
52015;SDS011;38032;53.326;6.472;2022-09-01T04:24:41;3.83;;;2.42;;
52015;SDS011;38032;53.326;6.472;2022-09-01T04:27:09;5.63;;;2.25;;
52015;SDS011;38032;53.326;6.472;2022-09-01T04:29:35;4.13;;;2.63;;
52015;SDS011;38032;53.326;6.472;2022-09-01T04:32:03;4.05;;;2.80;;
52015;SDS011;38032;53.326;6.472;2022-09-01T04:34:32;4.00;;;2.90;;
52015;SDS011;38032;53.326;6.472;2022-09-01T04:37:08;4.38;;;2.63;;
52015;SDS011;38032;53.326;6.472;2022-09-01T04:39:47;3.45;;;2.63;;
52015;SDS011;38032;53.326;6.472;2022-09-01T04:42:16;3.78;;;3.00;;
52015;SDS011;38032;53.326;6.472;2022-09-01T04:44:47;3.92;;;2.92;;
52015;SDS011;38032;53.326;6.472;2022-09-01T04:47:13;4.05;;;3.00;;
52015;SDS011;38032;53.326;6.472;2022-09-01T04:49:41;5.20;;;3.13;;
52015;SDS011;38032;53.326;6.472;2022-09-01T04:52:09;6.63;;;3.08;;
52015;SDS011;38032;53.326;6.472;2022-09-01T04:54:36;4.47;;;3.00;;
52015;SDS011;38032;53.326;6.472;2022-09-01T04:57:02;4.60;;;3.03;;
52015;SDS011;38032;53.326;6.472;2022-09-01T04:59:30;4.22;;;2.88;;
52015;SDS011;38032;53.326;6.472;2022-09-01T05:01:57;4.50;;;2.80;;
52015;SDS011;38032;53.326;6.472;2022-09-01T05:04:26;4.10;;;3.05;;
52015;SDS011;38032;53.326;6.472;2022-09-01T05:06:56;3.22;;;2.85;;
52015;SDS011;38032;53.326;6.472;2022-09-01T05:09:25;5.28;;;2.83;;
52015;SDS011;38032;53.326;6.472;2022-09-01T05:11:53;4.25;;;3.10;;
52015;SDS011;38032;53.326;6.472;2022-09-01T05:14:21;3.47;;;2.80;;
52015;SDS011;38032;53.326;6.472;2022-09-01T05:16:48;3.90;;;3.00;;
52015;SDS011;38032;53.326;6.472;2022-09-01T05:19:15;3.70;;;2.85;;
52015;SDS011;38032;53.326;6.472;2022-09-01T05:21:45;3.20;;;2.80;;
52015;SDS011;38032;53.326;6.472;2022-09-01T05:24:13;5.18;;;3.17;;
52015;SDS011;38032;53.326;6.472;2022-09-01T05:26:41;4.22;;;2.80;;
52015;SDS011;38032;53.326;6.472;2022-09-01T05:29:08;3.40;;;3.00;;
52015;SDS011;38032;53.326;6.472;2022-09-01T05:31:38;3.83;;;3.10;;
52015;SDS011;38032;53.326;6.472;2022-09-01T05:34:06;4.75;;;2.97;;
52015;SDS011;38032;53.326;6.472;2022-09-01T05:36:34;3.40;;;2.70;;
52015;SDS011;38032;53.326;6.472;2022-09-01T05:39:02;3.20;;;2.83;;
52015;SDS011;38032;53.326;6.472;2022-09-01T05:41:29;3.63;;;2.63;;
52015;SDS011;38032;53.326;6.472;2022-09-01T05:43:55;4.70;;;3.10;;
52015;SDS011;38032;53.326;6.472;2022-09-01T05:46:23;5.90;;;3.10;;
52015;SDS011;38032;53.326;6.472;2022-09-01T05:48:51;3.95;;;3.10;;
52015;SDS011;38032;53.326;6.472;2022-09-01T05:51:19;4.13;;;3.22;;
52015;SDS011;38032;53.326;6.472;2022-09-01T05:53:48;3.90;;;3.00;;
52015;SDS011;38032;53.326;6.472;2022-09-01T05:56:16;3.85;;;2.90;;
52015;SDS011;38032;53.326;6.472;2022-09-01T05:58:43;4.47;;;3.17;;
52015;SDS011;38032;53.326;6.472;2022-09-01T06:01:14;4.10;;;3.22;;
52015;SDS011;38032;53.326;6.472;2022-09-01T06:03:47;4.68;;;3.20;;
52015;SDS011;38032;53.326;6.472;2022-09-01T06:06:20;5.07;;;2.90;;
52015;SDS011;38032;53.326;6.472;2022-09-01T06:08:48;5.15;;;3.20;;
52015;SDS011;38032;53.326;6.472;2022-09-01T06:11:15;6.13;;;2.97;;
52015;SDS011;38032;53.326;6.472;2022-09-01T06:13:42;5.80;;;3.10;;
52015;SDS011;38032;53.326;6.472;2022-09-01T06:16:12;4.38;;;3.10;;
52015;SDS011;38032;53.326;6.472;2022-09-01T06:18:40;5.22;;;3.22;;
52015;SDS011;38032;53.326;6.472;2022-09-01T06:21:07;4.22;;;3.03;;
52015;SDS011;38032;53.326;6.472;2022-09-01T06:23:36;3.28;;;2.88;;
52015;SDS011;38032;53.326;6.472;2022-09-01T06:26:02;4.05;;;3.30;;
52015;SDS011;38032;53.326;6.472;2022-09-01T06:28:28;4.03;;;2.78;;
52015;SDS011;38032;53.326;6.472;2022-09-01T06:30:54;4.70;;;2.95;;
52015;SDS011;38032;53.326;6.472;2022-09-01T06:33:21;5.70;;;2.80;;
52015;SDS011;38032;53.326;6.472;2022-09-01T06:35:50;5.25;;;2.95;;
52015;SDS011;38032;53.326;6.472;2022-09-01T06:38:17;3.97;;;3.00;;
52015;SDS011;38032;53.326;6.472;2022-09-01T06:40:44;6.47;;;2.80;;
52015;SDS011;38032;53.326;6.472;2022-09-01T06:43:10;6.03;;;3.13;;
52015;SDS011;38032;53.326;6.472;2022-09-01T06:45:41;5.90;;;3.05;;
52015;SDS011;38032;53.326;6.472;2022-09-01T06:48:18;3.65;;;3.05;;
52015;SDS011;38032;53.326;6.472;2022-09-01T06:50:44;6.22;;;2.95;;
52015;SDS011;38032;53.326;6.472;2022-09-01T06:53:10;4.90;;;3.15;;
52015;SDS011;38032;53.326;6.472;2022-09-01T06:55:38;5.22;;;2.60;;
52015;SDS011;38032;53.326;6.472;2022-09-01T06:58:06;5.57;;;2.85;;
52015;SDS011;38032;53.326;6.472;2022-09-01T07:00:35;4.32;;;2.75;;
52015;SDS011;38032;53.326;6.472;2022-09-01T07:03:06;4.00;;;2.72;;
52015;SDS011;38032;53.326;6.472;2022-09-01T07:05:34;4.03;;;2.50;;
52015;SDS011;38032;53.326;6.472;2022-09-01T07:08:03;5.53;;;2.90;;
52015;SDS011;38032;53.326;6.472;2022-09-01T07:10:38;6.38;;;2.53;;
52015;SDS011;38032;53.326;6.472;2022-09-01T07:13:09;4.68;;;2.58;;
52015;SDS011;38032;53.326;6.472;2022-09-01T07:15:41;3.67;;;2.70;;
52015;SDS011;38032;53.326;6.472;2022-09-01T07:18:07;3.78;;;2.50;;
52015;SDS011;38032;53.326;6.472;2022-09-01T07:20:34;4.85;;;2.58;;
52015;SDS011;38032;53.326;6.472;2022-09-01T07:23:03;3.90;;;2.60;;
52015;SDS011;38032;53.326;6.472;2022-09-01T07:25:30;2.90;;;2.08;;
52015;SDS011;38032;53.326;6.472;2022-09-01T07:27:58;3.97;;;2.30;;
52015;SDS011;38032;53.326;6.472;2022-09-01T07:30:25;3.42;;;2.40;;
52015;SDS011;38032;53.326;6.472;2022-09-01T07:32:51;2.80;;;2.20;;
52015;SDS011;38032;53.326;6.472;2022-09-01T07:35:19;3.55;;;2.10;;
52015;SDS011;38032;53.326;6.472;2022-09-01T07:37:46;5.10;;;2.40;;
52015;SDS011;38032;53.326;6.472;2022-09-01T07:40:13;4.18;;;2.00;;
52015;SDS011;38032;53.326;6.472;2022-09-01T07:42:44;5.53;;;2.15;;
52015;SDS011;38032;53.326;6.472;2022-09-01T07:45:12;3.47;;;1.90;;
52015;SDS011;38032;53.326;6.472;2022-09-01T07:47:41;3.50;;;2.30;;
52015;SDS011;38032;53.326;6.472;2022-09-01T07:50:09;5.85;;;2.25;;
52015;SDS011;38032;53.326;6.472;2022-09-01T07:52:39;3.20;;;1.95;;
52015;SDS011;38032;53.326;6.472;2022-09-01T07:55:07;4.03;;;2.05;;
52015;SDS011;38032;53.326;6.472;2022-09-01T07:57:35;4.05;;;2.03;;
52015;SDS011;38032;53.326;6.472;2022-09-01T08:00:03;4.05;;;2.00;;
52015;SDS011;38032;53.326;6.472;2022-09-01T08:02:30;4.45;;;2.05;;
52015;SDS011;38032;53.326;6.472;2022-09-01T08:04:57;3.05;;;1.85;;
52015;SDS011;38032;53.326;6.472;2022-09-01T08:07:23;4.97;;;2.30;;
52015;SDS011;38032;53.326;6.472;2022-09-01T08:09:49;3.10;;;2.10;;
52015;SDS011;38032;53.326;6.472;2022-09-01T08:12:15;4.65;;;2.38;;
52015;SDS011;38032;53.326;6.472;2022-09-01T08:14:41;3.72;;;2.40;;
52015;SDS011;38032;53.326;6.472;2022-09-01T08:17:07;4.13;;;2.25;;
52015;SDS011;38032;53.326;6.472;2022-09-01T08:19:33;4.90;;;2.20;;
52015;SDS011;38032;53.326;6.472;2022-09-01T08:22:00;3.60;;;2.03;;
52015;SDS011;38032;53.326;6.472;2022-09-01T08:24:26;3.67;;;1.90;;
52015;SDS011;38032;53.326;6.472;2022-09-01T08:26:52;4.63;;;2.10;;
52015;SDS011;38032;53.326;6.472;2022-09-01T08:29:17;4.05;;;2.30;;
52015;SDS011;38032;53.326;6.472;2022-09-01T08:31:45;4.85;;;2.00;;
52015;SDS011;38032;53.326;6.472;2022-09-01T08:34:11;3.08;;;1.90;;
52015;SDS011;38032;53.326;6.472;2022-09-01T08:36:37;2.88;;;1.90;;
52015;SDS011;38032;53.326;6.472;2022-09-01T08:39:02;3.03;;;2.00;;
52015;SDS011;38032;53.326;6.472;2022-09-01T08:46:45;2.67;;;1.80;;
52015;SDS011;38032;53.326;6.472;2022-09-01T08:49:17;5.57;;;2.47;;
52015;SDS011;38032;53.326;6.472;2022-09-01T08:51:49;3.42;;;1.98;;
52015;SDS011;38032;53.326;6.472;2022-09-01T08:54:23;4.68;;;1.70;;
52015;SDS011;38032;53.326;6.472;2022-09-01T08:56:57;4.75;;;1.90;;
52015;SDS011;38032;53.326;6.472;2022-09-01T08:59:26;3.17;;;1.80;;
52015;SDS011;38032;53.326;6.472;2022-09-01T09:01:59;3.50;;;1.70;;
52015;SDS011;38032;53.326;6.472;2022-09-01T09:04:34;4.35;;;1.80;;
52015;SDS011;38032;53.326;6.472;2022-09-01T09:07:22;3.45;;;1.80;;
52015;SDS011;38032;53.326;6.472;2022-09-01T09:09:53;2.95;;;1.50;;
52015;SDS011;38032;53.326;6.472;2022-09-01T09:12:27;4.30;;;1.50;;
52015;SDS011;38032;53.326;6.472;2022-09-01T09:15:02;2.35;;;1.60;;
52015;SDS011;38032;53.326;6.472;2022-09-01T09:17:35;3.40;;;1.63;;
52015;SDS011;38032;53.326;6.472;2022-09-01T09:20:04;3.97;;;1.50;;
52015;SDS011;38032;53.326;6.472;2022-09-01T09:22:30;3.75;;;1.60;;
52015;SDS011;38032;53.326;6.472;2022-09-01T09:25:04;4.22;;;1.60;;
52015;SDS011;38032;53.326;6.472;2022-09-01T09:27:35;2.50;;;1.40;;
52015;SDS011;38032;53.326;6.472;2022-09-01T09:30:09;2.92;;;1.50;;
52015;SDS011;38032;53.326;6.472;2022-09-01T09:32:42;2.87;;;1.40;;
52015;SDS011;38032;53.326;6.472;2022-09-01T09:37:46;2.58;;;1.50;;
52015;SDS011;38032;53.326;6.472;2022-09-01T09:40:13;3.08;;;1.30;;
52015;SDS011;38032;53.326;6.472;2022-09-01T09:45:22;4.32;;;1.63;;
52015;SDS011;38032;53.326;6.472;2022-09-01T09:47:50;1.88;;;1.20;;
52015;SDS011;38032;53.326;6.472;2022-09-01T09:50:20;2.05;;;1.30;;
52015;SDS011;38032;53.326;6.472;2022-09-01T09:53:09;4.00;;;1.25;;
52015;SDS011;38032;53.326;6.472;2022-09-01T09:55:52;1.77;;;1.10;;
52015;SDS011;38032;53.326;6.472;2022-09-01T09:58:20;2.65;;;1.20;;
52015;SDS011;38032;53.326;6.472;2022-09-01T10:01:02;3.20;;;1.23;;
52015;SDS011;38032;53.326;6.472;2022-09-01T10:03:34;3.30;;;1.08;;
52015;SDS011;38032;53.326;6.472;2022-09-01T10:06:02;1.77;;;1.05;;
52015;SDS011;38032;53.326;6.472;2022-09-01T10:10:59;2.90;;;1.10;;
52015;SDS011;38032;53.326;6.472;2022-09-01T10:13:25;3.28;;;1.35;;
52015;SDS011;38032;53.326;6.472;2022-09-01T10:15:55;2.35;;;1.20;;
52015;SDS011;38032;53.326;6.472;2022-09-01T10:18:24;2.63;;;1.20;;
52015;SDS011;38032;53.326;6.472;2022-09-01T10:23:33;2.05;;;1.13;;
52015;SDS011;38032;53.326;6.472;2022-09-01T10:26:13;3.42;;;1.30;;
52015;SDS011;38032;53.326;6.472;2022-09-01T10:28:48;2.65;;;1.15;;
52015;SDS011;38032;53.326;6.472;2022-09-01T10:31:19;2.55;;;1.13;;
52015;SDS011;38032;53.326;6.472;2022-09-01T10:33:46;2.03;;;1.00;;
52015;SDS011;38032;53.326;6.472;2022-09-01T10:36:13;1.40;;;1.00;;
52015;SDS011;38032;53.326;6.472;2022-09-01T10:38:41;1.92;;;1.10;;
52015;SDS011;38032;53.326;6.472;2022-09-01T10:41:07;3.15;;;1.10;;
52015;SDS011;38032;53.326;6.472;2022-09-01T10:43:36;2.13;;;1.10;;
52015;SDS011;38032;53.326;6.472;2022-09-01T10:46:08;2.03;;;1.23;;
52015;SDS011;38032;53.326;6.472;2022-09-01T10:48:55;1.73;;;1.05;;
52015;SDS011;38032;53.326;6.472;2022-09-01T10:53:49;2.03;;;1.17;;
52015;SDS011;38032;53.326;6.472;2022-09-01T10:56:18;1.60;;;1.00;;
52015;SDS011;38032;53.326;6.472;2022-09-01T10:59:09;1.83;;;1.00;;
52015;SDS011;38032;53.326;6.472;2022-09-01T11:04:14;1.50;;;0.93;;
52015;SDS011;38032;53.326;6.472;2022-09-01T11:06:44;2.20;;;1.10;;
52015;SDS011;38032;53.326;6.472;2022-09-01T11:09:36;1.42;;;1.02;;
52015;SDS011;38032;53.326;6.472;2022-09-01T11:14:31;2.10;;;0.90;;
52015;SDS011;38032;53.326;6.472;2022-09-01T11:22:26;2.50;;;0.90;;
52015;SDS011;38032;53.326;6.472;2022-09-01T11:27:59;2.97;;;1.00;;
52015;SDS011;38032;53.326;6.472;2022-09-01T11:30:33;2.45;;;1.00;;
52015;SDS011;38032;53.326;6.472;2022-09-01T11:35:41;2.22;;;1.02;;
52015;SDS011;38032;53.326;6.472;2022-09-01T11:38:09;2.00;;;1.10;;
52015;SDS011;38032;53.326;6.472;2022-09-01T11:40:39;1.85;;;1.08;;
52015;SDS011;38032;53.326;6.472;2022-09-01T11:43:06;1.48;;;0.90;;
52015;SDS011;38032;53.326;6.472;2022-09-01T11:45:37;3.65;;;1.00;;
52015;SDS011;38032;53.326;6.472;2022-09-01T11:48:20;1.73;;;0.93;;
52015;SDS011;38032;53.326;6.472;2022-09-01T11:50:46;2.58;;;1.10;;
52015;SDS011;38032;53.326;6.472;2022-09-01T11:53:23;1.60;;;1.10;;
52015;SDS011;38032;53.326;6.472;2022-09-01T11:55:51;2.80;;;0.90;;
52015;SDS011;38032;53.326;6.472;2022-09-01T12:00:52;2.05;;;1.13;;
52015;SDS011;38032;53.326;6.472;2022-09-01T12:03:20;3.10;;;1.10;;
52015;SDS011;38032;53.326;6.472;2022-09-01T12:05:47;3.13;;;1.10;;
52015;SDS011;38032;53.326;6.472;2022-09-01T12:08:18;3.15;;;1.10;;
52015;SDS011;38032;53.326;6.472;2022-09-01T12:10:45;1.67;;;1.00;;
52015;SDS011;38032;53.326;6.472;2022-09-01T12:13:19;2.78;;;1.13;;
52015;SDS011;38032;53.326;6.472;2022-09-01T12:15:53;1.83;;;1.10;;
52015;SDS011;38032;53.326;6.472;2022-09-01T12:18:22;2.00;;;1.15;;
52015;SDS011;38032;53.326;6.472;2022-09-01T12:20:52;1.85;;;1.00;;
52015;SDS011;38032;53.326;6.472;2022-09-01T12:23:23;1.77;;;1.20;;
52015;SDS011;38032;53.326;6.472;2022-09-01T12:25:53;2.72;;;1.00;;
52015;SDS011;38032;53.326;6.472;2022-09-01T12:28:22;2.33;;;1.13;;
52015;SDS011;38032;53.326;6.472;2022-09-01T12:30:50;2.22;;;1.20;;
52015;SDS011;38032;53.326;6.472;2022-09-01T12:33:18;2.40;;;1.20;;
52015;SDS011;38032;53.326;6.472;2022-09-01T12:35:45;3.63;;;1.20;;
52015;SDS011;38032;53.326;6.472;2022-09-01T12:40:44;2.33;;;1.10;;
52015;SDS011;38032;53.326;6.472;2022-09-01T12:43:31;1.85;;;1.15;;
52015;SDS011;38032;53.326;6.472;2022-09-01T12:46:00;1.40;;;1.10;;
52015;SDS011;38032;53.326;6.472;2022-09-01T12:48:29;2.50;;;1.00;;
52015;SDS011;38032;53.326;6.472;2022-09-01T12:50:59;3.40;;;1.13;;
52015;SDS011;38032;53.326;6.472;2022-09-01T12:53:27;4.15;;;1.40;;
52015;SDS011;38032;53.326;6.472;2022-09-01T12:55:57;2.35;;;1.15;;
52015;SDS011;38032;53.326;6.472;2022-09-01T12:58:27;2.50;;;1.08;;
52015;SDS011;38032;53.326;6.472;2022-09-01T13:01:00;3.33;;;1.23;;
52015;SDS011;38032;53.326;6.472;2022-09-01T13:03:29;1.50;;;1.00;;
52015;SDS011;38032;53.326;6.472;2022-09-01T13:05:57;2.03;;;1.10;;
52015;SDS011;38032;53.326;6.472;2022-09-01T13:08:26;1.90;;;1.30;;
52015;SDS011;38032;53.326;6.472;2022-09-01T13:13:25;3.35;;;1.05;;
52015;SDS011;38032;53.326;6.472;2022-09-01T13:15:52;2.38;;;1.00;;
52015;SDS011;38032;53.326;6.472;2022-09-01T13:18:21;2.00;;;1.00;;
52015;SDS011;38032;53.326;6.472;2022-09-01T13:20:49;3.33;;;1.15;;
52015;SDS011;38032;53.326;6.472;2022-09-01T13:23:16;2.22;;;0.90;;
52015;SDS011;38032;53.326;6.472;2022-09-01T13:25:42;2.03;;;1.15;;
52015;SDS011;38032;53.326;6.472;2022-09-01T13:28:09;2.53;;;1.20;;
52015;SDS011;38032;53.326;6.472;2022-09-01T13:30:35;5.22;;;1.20;;
52015;SDS011;38032;53.326;6.472;2022-09-01T13:33:02;1.90;;;1.10;;
52015;SDS011;38032;53.326;6.472;2022-09-01T13:35:27;2.63;;;1.33;;
52015;SDS011;38032;53.326;6.472;2022-09-01T13:37:53;2.08;;;1.20;;
52015;SDS011;38032;53.326;6.472;2022-09-01T13:40:20;2.33;;;1.13;;
52015;SDS011;38032;53.326;6.472;2022-09-01T13:42:48;2.15;;;1.20;;
52015;SDS011;38032;53.326;6.472;2022-09-01T13:45:17;2.28;;;1.30;;
52015;SDS011;38032;53.326;6.472;2022-09-01T13:47:45;2.17;;;1.20;;
52015;SDS011;38032;53.326;6.472;2022-09-01T13:50:14;1.70;;;1.10;;
52015;SDS011;38032;53.326;6.472;2022-09-01T13:52:45;1.65;;;1.00;;
52015;SDS011;38032;53.326;6.472;2022-09-01T13:55:15;2.42;;;1.10;;
52015;SDS011;38032;53.326;6.472;2022-09-01T13:57:43;3.58;;;1.40;;
52015;SDS011;38032;53.326;6.472;2022-09-01T14:00:10;4.75;;;1.48;;
52015;SDS011;38032;53.326;6.472;2022-09-01T14:02:41;3.95;;;1.20;;
52015;SDS011;38032;53.326;6.472;2022-09-01T14:05:15;1.55;;;1.00;;
52015;SDS011;38032;53.326;6.472;2022-09-01T14:07:43;2.25;;;1.10;;
52015;SDS011;38032;53.326;6.472;2022-09-01T14:10:09;3.42;;;1.10;;
52015;SDS011;38032;53.326;6.472;2022-09-01T14:12:35;2.90;;;1.00;;
52015;SDS011;38032;53.326;6.472;2022-09-01T14:15:02;3.28;;;1.08;;
52015;SDS011;38032;53.326;6.472;2022-09-01T14:17:28;1.85;;;1.10;;
52015;SDS011;38032;53.326;6.472;2022-09-01T14:19:54;2.55;;;1.10;;
52015;SDS011;38032;53.326;6.472;2022-09-01T14:22:21;1.55;;;1.00;;
52015;SDS011;38032;53.326;6.472;2022-09-01T14:24:47;3.78;;;1.00;;
52015;SDS011;38032;53.326;6.472;2022-09-01T14:27:13;3.47;;;1.13;;
52015;SDS011;38032;53.326;6.472;2022-09-01T14:29:38;1.80;;;1.10;;
52015;SDS011;38032;53.326;6.472;2022-09-01T14:32:04;2.10;;;1.13;;
52015;SDS011;38032;53.326;6.472;2022-09-01T14:34:32;2.53;;;1.13;;
52015;SDS011;38032;53.326;6.472;2022-09-01T14:36:58;2.33;;;1.10;;
52015;SDS011;38032;53.326;6.472;2022-09-01T14:39:24;1.90;;;1.20;;
52015;SDS011;38032;53.326;6.472;2022-09-01T14:41:50;1.80;;;1.10;;
52015;SDS011;38032;53.326;6.472;2022-09-01T14:44:16;2.78;;;1.10;;
52015;SDS011;38032;53.326;6.472;2022-09-01T14:46:42;2.63;;;1.17;;
52015;SDS011;38032;53.326;6.472;2022-09-01T14:49:07;5.60;;;1.33;;
52015;SDS011;38032;53.326;6.472;2022-09-01T14:51:35;4.25;;;1.13;;
52015;SDS011;38032;53.326;6.472;2022-09-01T14:54:02;2.13;;;1.20;;
52015;SDS011;38032;53.326;6.472;2022-09-01T14:56:29;2.58;;;1.00;;
52015;SDS011;38032;53.326;6.472;2022-09-01T14:58:54;2.80;;;1.10;;
52015;SDS011;38032;53.326;6.472;2022-09-01T15:01:25;2.67;;;1.15;;
52015;SDS011;38032;53.326;6.472;2022-09-01T15:03:51;3.72;;;1.10;;
52015;SDS011;38032;53.326;6.472;2022-09-01T15:06:19;4.05;;;1.65;;
52015;SDS011;38032;53.326;6.472;2022-09-01T15:08:46;3.83;;;1.10;;
52015;SDS011;38032;53.326;6.472;2022-09-01T15:11:13;2.05;;;1.17;;
52015;SDS011;38032;53.326;6.472;2022-09-01T15:13:41;4.63;;;1.38;;
52015;SDS011;38032;53.326;6.472;2022-09-01T15:16:16;1.70;;;1.08;;
52015;SDS011;38032;53.326;6.472;2022-09-01T15:18:46;5.00;;;1.40;;
52015;SDS011;38032;53.326;6.472;2022-09-01T15:21:17;5.07;;;1.17;;
52015;SDS011;38032;53.326;6.472;2022-09-01T15:23:45;3.27;;;1.40;;
52015;SDS011;38032;53.326;6.472;2022-09-01T15:26:12;4.38;;;1.30;;
52015;SDS011;38032;53.326;6.472;2022-09-01T15:28:40;6.15;;;1.70;;
52015;SDS011;38032;53.326;6.472;2022-09-01T15:31:06;5.20;;;2.60;;
52015;SDS011;38032;53.326;6.472;2022-09-01T15:33:32;5.28;;;3.40;;
52015;SDS011;38032;53.326;6.472;2022-09-01T15:35:57;5.30;;;3.30;;
52015;SDS011;38032;53.326;6.472;2022-09-01T15:38:23;3.83;;;1.80;;
52015;SDS011;38032;53.326;6.472;2022-09-01T15:40:49;3.67;;;2.33;;
52015;SDS011;38032;53.326;6.472;2022-09-01T15:43:15;3.67;;;2.08;;